sensor_id;sensor_type;location;lat;lon;timestamp;P1;durP1;ratioP1;P2;durP2;ratioP2
42104;SDS011;70664;51.472;5.712;2024-03-17T00:01:39;3.67;;;2.22;;
42104;SDS011;70664;51.472;5.712;2024-03-17T00:04:06;5.28;;;2.08;;
42104;SDS011;70664;51.472;5.712;2024-03-17T00:06:32;5.55;;;2.42;;
42104;SDS011;70664;51.472;5.712;2024-03-17T00:08:58;7.50;;;2.83;;
42104;SDS011;70664;51.472;5.712;2024-03-17T00:11:25;5.40;;;2.25;;
42104;SDS011;70664;51.472;5.712;2024-03-17T00:13:51;4.80;;;2.67;;
42104;SDS011;70664;51.472;5.712;2024-03-17T00:16:17;5.32;;;2.65;;
42104;SDS011;70664;51.472;5.712;2024-03-17T00:18:43;3.70;;;2.40;;
42104;SDS011;70664;51.472;5.712;2024-03-17T00:21:11;4.75;;;2.45;;
42104;SDS011;70664;51.472;5.712;2024-03-17T00:23:38;5.22;;;2.72;;
42104;SDS011;70664;51.472;5.712;2024-03-17T00:26:04;6.60;;;2.70;;
42104;SDS011;70664;51.472;5.712;2024-03-17T00:28:30;4.53;;;2.30;;
42104;SDS011;70664;51.472;5.712;2024-03-17T00:30:56;4.47;;;2.40;;
42104;SDS011;70664;51.472;5.712;2024-03-17T00:33:21;4.18;;;2.70;;
42104;SDS011;70664;51.472;5.712;2024-03-17T00:35:49;5.72;;;2.65;;
42104;SDS011;70664;51.472;5.712;2024-03-17T00:38:15;6.72;;;2.40;;
42104;SDS011;70664;51.472;5.712;2024-03-17T00:40:41;3.50;;;2.38;;
42104;SDS011;70664;51.472;5.712;2024-03-17T00:43:07;3.22;;;2.47;;
42104;SDS011;70664;51.472;5.712;2024-03-17T00:45:32;4.80;;;2.38;;
42104;SDS011;70664;51.472;5.712;2024-03-17T00:47:58;4.80;;;2.60;;
42104;SDS011;70664;51.472;5.712;2024-03-17T00:50:24;5.57;;;2.35;;
42104;SDS011;70664;51.472;5.712;2024-03-17T00:52:50;4.10;;;2.30;;
42104;SDS011;70664;51.472;5.712;2024-03-17T00:55:16;3.83;;;2.40;;
42104;SDS011;70664;51.472;5.712;2024-03-17T00:57:42;5.32;;;2.35;;
42104;SDS011;70664;51.472;5.712;2024-03-17T01:00:07;3.28;;;2.05;;
42104;SDS011;70664;51.472;5.712;2024-03-17T01:02:37;3.45;;;2.05;;
42104;SDS011;70664;51.472;5.712;2024-03-17T01:05:04;5.35;;;2.40;;
42104;SDS011;70664;51.472;5.712;2024-03-17T01:07:31;3.00;;;2.13;;
42104;SDS011;70664;51.472;5.712;2024-03-17T01:09:58;3.17;;;2.30;;
42104;SDS011;70664;51.472;5.712;2024-03-17T01:12:24;5.20;;;2.45;;
42104;SDS011;70664;51.472;5.712;2024-03-17T01:14:51;3.97;;;2.60;;
42104;SDS011;70664;51.472;5.712;2024-03-17T01:17:17;3.75;;;2.25;;
42104;SDS011;70664;51.472;5.712;2024-03-17T01:19:44;3.50;;;2.40;;
42104;SDS011;70664;51.472;5.712;2024-03-17T01:22:10;3.22;;;2.38;;
42104;SDS011;70664;51.472;5.712;2024-03-17T01:24:36;4.72;;;2.42;;
42104;SDS011;70664;51.472;5.712;2024-03-17T01:27:04;4.53;;;2.20;;
42104;SDS011;70664;51.472;5.712;2024-03-17T01:29:31;6.07;;;2.58;;
42104;SDS011;70664;51.472;5.712;2024-03-17T01:31:57;5.07;;;2.33;;
42104;SDS011;70664;51.472;5.712;2024-03-17T01:34:23;4.38;;;2.53;;
42104;SDS011;70664;51.472;5.712;2024-03-17T01:36:48;3.00;;;1.92;;
42104;SDS011;70664;51.472;5.712;2024-03-17T01:39:14;5.30;;;2.10;;
42104;SDS011;70664;51.472;5.712;2024-03-17T01:41:41;4.78;;;2.35;;
42104;SDS011;70664;51.472;5.712;2024-03-17T01:44:07;3.15;;;2.15;;
42104;SDS011;70664;51.472;5.712;2024-03-17T01:46:46;4.57;;;2.30;;
42104;SDS011;70664;51.472;5.712;2024-03-17T01:49:12;3.95;;;2.10;;
42104;SDS011;70664;51.472;5.712;2024-03-17T01:51:38;4.18;;;2.38;;
42104;SDS011;70664;51.472;5.712;2024-03-17T01:54:04;3.40;;;2.20;;
42104;SDS011;70664;51.472;5.712;2024-03-17T01:56:30;3.35;;;2.20;;
42104;SDS011;70664;51.472;5.712;2024-03-17T01:58:56;3.97;;;2.05;;
42104;SDS011;70664;51.472;5.712;2024-03-17T02:01:23;2.92;;;2.13;;
42104;SDS011;70664;51.472;5.712;2024-03-17T02:03:48;3.15;;;2.40;;
42104;SDS011;70664;51.472;5.712;2024-03-17T02:06:14;3.10;;;2.20;;
42104;SDS011;70664;51.472;5.712;2024-03-17T02:08:50;3.28;;;2.40;;
42104;SDS011;70664;51.472;5.712;2024-03-17T02:11:26;3.75;;;2.22;;
42104;SDS011;70664;51.472;5.712;2024-03-17T02:13:54;4.65;;;2.45;;
42104;SDS011;70664;51.472;5.712;2024-03-17T02:16:24;3.80;;;2.30;;
42104;SDS011;70664;51.472;5.712;2024-03-17T02:18:56;2.97;;;2.33;;
42104;SDS011;70664;51.472;5.712;2024-03-17T02:21:23;3.88;;;2.25;;
42104;SDS011;70664;51.472;5.712;2024-03-17T02:23:54;4.05;;;2.30;;
42104;SDS011;70664;51.472;5.712;2024-03-17T02:26:20;2.85;;;2.10;;
42104;SDS011;70664;51.472;5.712;2024-03-17T02:28:48;4.20;;;2.40;;
42104;SDS011;70664;51.472;5.712;2024-03-17T02:31:15;3.53;;;2.30;;
42104;SDS011;70664;51.472;5.712;2024-03-17T02:33:43;3.13;;;2.20;;
42104;SDS011;70664;51.472;5.712;2024-03-17T02:36:10;4.53;;;2.35;;
42104;SDS011;70664;51.472;5.712;2024-03-17T02:38:40;4.55;;;2.30;;
42104;SDS011;70664;51.472;5.712;2024-03-17T02:41:25;4.93;;;2.85;;
42104;SDS011;70664;51.472;5.712;2024-03-17T02:43:53;3.22;;;2.40;;
42104;SDS011;70664;51.472;5.712;2024-03-17T02:46:19;3.28;;;2.45;;
42104;SDS011;70664;51.472;5.712;2024-03-17T02:48:47;4.45;;;2.70;;
42104;SDS011;70664;51.472;5.712;2024-03-17T02:51:16;2.90;;;2.25;;
42104;SDS011;70664;51.472;5.712;2024-03-17T02:53:44;4.45;;;2.53;;
42104;SDS011;70664;51.472;5.712;2024-03-17T02:56:11;4.07;;;2.33;;
42104;SDS011;70664;51.472;5.712;2024-03-17T02:58:38;3.95;;;2.80;;
42104;SDS011;70664;51.472;5.712;2024-03-17T03:01:05;3.42;;;2.47;;
42104;SDS011;70664;51.472;5.712;2024-03-17T03:03:31;4.40;;;2.70;;
42104;SDS011;70664;51.472;5.712;2024-03-17T03:05:58;5.10;;;2.70;;
42104;SDS011;70664;51.472;5.712;2024-03-17T03:08:29;3.20;;;2.38;;
42104;SDS011;70664;51.472;5.712;2024-03-17T03:10:56;3.50;;;2.53;;
42104;SDS011;70664;51.472;5.712;2024-03-17T03:13:21;2.75;;;2.35;;
42104;SDS011;70664;51.472;5.712;2024-03-17T03:15:48;2.55;;;2.35;;
42104;SDS011;70664;51.472;5.712;2024-03-17T03:18:14;3.90;;;2.60;;
42104;SDS011;70664;51.472;5.712;2024-03-17T03:20:40;3.60;;;2.47;;
42104;SDS011;70664;51.472;5.712;2024-03-17T03:23:06;2.80;;;2.40;;
42104;SDS011;70664;51.472;5.712;2024-03-17T03:25:32;5.30;;;2.50;;
42104;SDS011;70664;51.472;5.712;2024-03-17T03:27:57;6.25;;;2.78;;
42104;SDS011;70664;51.472;5.712;2024-03-17T03:30:24;3.90;;;2.53;;
42104;SDS011;70664;51.472;5.712;2024-03-17T03:32:50;2.92;;;2.63;;
42104;SDS011;70664;51.472;5.712;2024-03-17T03:35:16;4.75;;;2.80;;
42104;SDS011;70664;51.472;5.712;2024-03-17T03:37:42;3.92;;;2.60;;
42104;SDS011;70664;51.472;5.712;2024-03-17T03:40:08;3.65;;;2.65;;
42104;SDS011;70664;51.472;5.712;2024-03-17T03:42:44;3.92;;;2.78;;
42104;SDS011;70664;51.472;5.712;2024-03-17T03:45:10;4.32;;;2.50;;
42104;SDS011;70664;51.472;5.712;2024-03-17T03:47:39;3.97;;;2.80;;
42104;SDS011;70664;51.472;5.712;2024-03-17T03:50:09;3.53;;;2.75;;
42104;SDS011;70664;51.472;5.712;2024-03-17T03:52:39;3.13;;;2.60;;
42104;SDS011;70664;51.472;5.712;2024-03-17T03:55:06;3.53;;;2.75;;
42104;SDS011;70664;51.472;5.712;2024-03-17T03:57:40;3.50;;;2.58;;
42104;SDS011;70664;51.472;5.712;2024-03-17T04:00:07;4.20;;;2.70;;
42104;SDS011;70664;51.472;5.712;2024-03-17T04:02:37;4.75;;;2.40;;
42104;SDS011;70664;51.472;5.712;2024-03-17T04:05:23;3.63;;;2.70;;
42104;SDS011;70664;51.472;5.712;2024-03-17T04:07:49;2.85;;;2.50;;
42104;SDS011;70664;51.472;5.712;2024-03-17T04:10:15;3.90;;;2.50;;
42104;SDS011;70664;51.472;5.712;2024-03-17T04:12:44;3.65;;;2.63;;
42104;SDS011;70664;51.472;5.712;2024-03-17T04:15:10;4.03;;;3.03;;
42104;SDS011;70664;51.472;5.712;2024-03-17T04:17:36;2.88;;;2.55;;
42104;SDS011;70664;51.472;5.712;2024-03-17T04:20:02;2.63;;;2.42;;
42104;SDS011;70664;51.472;5.712;2024-03-17T04:22:34;4.22;;;2.63;;
42104;SDS011;70664;51.472;5.712;2024-03-17T04:25:00;2.80;;;2.45;;
42104;SDS011;70664;51.472;5.712;2024-03-17T04:27:26;3.78;;;2.70;;
42104;SDS011;70664;51.472;5.712;2024-03-17T04:29:53;4.53;;;2.50;;
42104;SDS011;70664;51.472;5.712;2024-03-17T04:32:21;2.78;;;2.45;;
42104;SDS011;70664;51.472;5.712;2024-03-17T04:34:48;2.95;;;2.45;;
42104;SDS011;70664;51.472;5.712;2024-03-17T04:37:14;3.45;;;2.75;;
42104;SDS011;70664;51.472;5.712;2024-03-17T04:39:40;3.42;;;2.63;;
42104;SDS011;70664;51.472;5.712;2024-03-17T04:42:10;4.55;;;2.83;;
42104;SDS011;70664;51.472;5.712;2024-03-17T04:44:40;3.80;;;2.80;;
42104;SDS011;70664;51.472;5.712;2024-03-17T04:47:07;3.47;;;2.67;;
42104;SDS011;70664;51.472;5.712;2024-03-17T04:52:03;4.00;;;2.60;;
42104;SDS011;70664;51.472;5.712;2024-03-17T04:54:33;4.15;;;2.55;;
42104;SDS011;70664;51.472;5.712;2024-03-17T04:56:59;5.38;;;2.90;;
42104;SDS011;70664;51.472;5.712;2024-03-17T04:59:26;3.08;;;2.50;;
42104;SDS011;70664;51.472;5.712;2024-03-17T05:01:52;3.25;;;2.65;;
42104;SDS011;70664;51.472;5.712;2024-03-17T05:04:18;2.97;;;2.45;;
42104;SDS011;70664;51.472;5.712;2024-03-17T05:06:44;4.30;;;2.63;;
42104;SDS011;70664;51.472;5.712;2024-03-17T05:09:15;3.20;;;2.83;;
42104;SDS011;70664;51.472;5.712;2024-03-17T05:11:42;3.33;;;2.75;;
42104;SDS011;70664;51.472;5.712;2024-03-17T05:14:08;3.70;;;2.58;;
42104;SDS011;70664;51.472;5.712;2024-03-17T05:16:34;4.10;;;2.70;;
42104;SDS011;70664;51.472;5.712;2024-03-17T05:19:00;3.35;;;2.55;;
42104;SDS011;70664;51.472;5.712;2024-03-17T05:21:26;3.10;;;2.60;;
42104;SDS011;70664;51.472;5.712;2024-03-17T05:23:55;3.45;;;2.60;;
42104;SDS011;70664;51.472;5.712;2024-03-17T05:26:24;3.63;;;2.70;;
42104;SDS011;70664;51.472;5.712;2024-03-17T05:28:50;3.83;;;2.80;;
42104;SDS011;70664;51.472;5.712;2024-03-17T05:31:16;4.63;;;2.50;;
42104;SDS011;70664;51.472;5.712;2024-03-17T05:33:43;3.97;;;2.65;;
42104;SDS011;70664;51.472;5.712;2024-03-17T05:36:09;2.75;;;2.45;;
42104;SDS011;70664;51.472;5.712;2024-03-17T05:38:35;3.75;;;2.70;;
42104;SDS011;70664;51.472;5.712;2024-03-17T05:41:02;3.38;;;2.70;;
42104;SDS011;70664;51.472;5.712;2024-03-17T05:43:34;4.47;;;2.53;;
42104;SDS011;70664;51.472;5.712;2024-03-17T05:46:03;3.10;;;2.45;;
42104;SDS011;70664;51.472;5.712;2024-03-17T05:48:34;4.00;;;2.78;;
42104;SDS011;70664;51.472;5.712;2024-03-17T05:51:05;3.20;;;2.63;;
42104;SDS011;70664;51.472;5.712;2024-03-17T05:53:32;3.88;;;2.53;;
42104;SDS011;70664;51.472;5.712;2024-03-17T05:55:59;3.60;;;2.60;;
42104;SDS011;70664;51.472;5.712;2024-03-17T05:58:25;3.47;;;2.55;;
42104;SDS011;70664;51.472;5.712;2024-03-17T06:00:51;4.95;;;3.00;;
42104;SDS011;70664;51.472;5.712;2024-03-17T06:03:17;3.28;;;2.55;;
42104;SDS011;70664;51.472;5.712;2024-03-17T06:05:43;3.03;;;2.60;;
42104;SDS011;70664;51.472;5.712;2024-03-17T06:08:11;3.85;;;2.58;;
42104;SDS011;70664;51.472;5.712;2024-03-17T06:10:37;4.72;;;2.70;;
42104;SDS011;70664;51.472;5.712;2024-03-17T06:13:09;4.57;;;2.50;;
42104;SDS011;70664;51.472;5.712;2024-03-17T06:15:41;4.47;;;2.40;;
42104;SDS011;70664;51.472;5.712;2024-03-17T06:18:08;4.57;;;2.53;;
42104;SDS011;70664;51.472;5.712;2024-03-17T06:20:42;3.13;;;2.70;;
42104;SDS011;70664;51.472;5.712;2024-03-17T06:23:10;4.15;;;2.80;;
42104;SDS011;70664;51.472;5.712;2024-03-17T06:25:40;3.95;;;2.97;;
42104;SDS011;70664;51.472;5.712;2024-03-17T06:28:12;3.75;;;2.45;;
42104;SDS011;70664;51.472;5.712;2024-03-17T06:33:10;3.17;;;2.45;;
42104;SDS011;70664;51.472;5.712;2024-03-17T06:35:37;4.28;;;2.88;;
42104;SDS011;70664;51.472;5.712;2024-03-17T06:38:04;3.00;;;2.50;;
42104;SDS011;70664;51.472;5.712;2024-03-17T06:40:34;2.72;;;2.08;;
42104;SDS011;70664;51.472;5.712;2024-03-17T06:43:03;4.30;;;2.60;;
42104;SDS011;70664;51.472;5.712;2024-03-17T06:45:30;3.20;;;2.58;;
42104;SDS011;70664;51.472;5.712;2024-03-17T06:47:56;2.83;;;2.47;;
42104;SDS011;70664;51.472;5.712;2024-03-17T06:50:22;3.42;;;2.40;;
42104;SDS011;70664;51.472;5.712;2024-03-17T06:52:48;3.38;;;2.55;;
42104;SDS011;70664;51.472;5.712;2024-03-17T06:55:14;3.33;;;2.70;;
42104;SDS011;70664;51.472;5.712;2024-03-17T06:57:43;3.83;;;2.58;;
42104;SDS011;70664;51.472;5.712;2024-03-17T07:00:09;3.33;;;2.30;;
42104;SDS011;70664;51.472;5.712;2024-03-17T07:02:39;4.07;;;2.83;;
42104;SDS011;70664;51.472;5.712;2024-03-17T07:05:06;3.45;;;2.42;;
42104;SDS011;70664;51.472;5.712;2024-03-17T07:07:32;2.50;;;2.17;;
42104;SDS011;70664;51.472;5.712;2024-03-17T07:09:59;3.88;;;2.75;;
42104;SDS011;70664;51.472;5.712;2024-03-17T07:12:30;3.30;;;2.60;;
42104;SDS011;70664;51.472;5.712;2024-03-17T07:14:55;2.58;;;2.15;;
42104;SDS011;70664;51.472;5.712;2024-03-17T07:17:21;3.25;;;2.80;;
42104;SDS011;70664;51.472;5.712;2024-03-17T07:19:47;3.13;;;2.30;;
42104;SDS011;70664;51.472;5.712;2024-03-17T07:22:14;3.70;;;2.35;;
42104;SDS011;70664;51.472;5.712;2024-03-17T07:24:40;3.17;;;2.38;;
42104;SDS011;70664;51.472;5.712;2024-03-17T07:27:08;3.22;;;2.30;;
42104;SDS011;70664;51.472;5.712;2024-03-17T07:29:38;2.78;;;2.40;;
42104;SDS011;70664;51.472;5.712;2024-03-17T07:32:04;3.20;;;2.40;;
42104;SDS011;70664;51.472;5.712;2024-03-17T07:34:31;3.10;;;2.35;;
42104;SDS011;70664;51.472;5.712;2024-03-17T07:36:58;3.83;;;2.35;;
42104;SDS011;70664;51.472;5.712;2024-03-17T07:39:28;3.28;;;2.17;;
42104;SDS011;70664;51.472;5.712;2024-03-17T07:41:57;2.88;;;2.15;;
42104;SDS011;70664;51.472;5.712;2024-03-17T07:44:24;4.45;;;2.50;;
42104;SDS011;70664;51.472;5.712;2024-03-17T07:46:54;2.95;;;2.25;;
42104;SDS011;70664;51.472;5.712;2024-03-17T07:49:20;2.85;;;2.55;;
42104;SDS011;70664;51.472;5.712;2024-03-17T07:51:46;3.25;;;2.53;;
42104;SDS011;70664;51.472;5.712;2024-03-17T07:54:12;2.50;;;2.30;;
42104;SDS011;70664;51.472;5.712;2024-03-17T07:56:38;3.17;;;2.38;;
42104;SDS011;70664;51.472;5.712;2024-03-17T07:59:04;3.67;;;2.20;;
42104;SDS011;70664;51.472;5.712;2024-03-17T08:01:37;3.55;;;2.38;;
42104;SDS011;70664;51.472;5.712;2024-03-17T08:04:04;3.47;;;2.30;;
42104;SDS011;70664;51.472;5.712;2024-03-17T08:06:30;2.22;;;2.03;;
42104;SDS011;70664;51.472;5.712;2024-03-17T08:08:55;3.10;;;1.95;;
42104;SDS011;70664;51.472;5.712;2024-03-17T08:11:22;2.92;;;2.20;;
42104;SDS011;70664;51.472;5.712;2024-03-17T08:13:49;2.60;;;2.20;;
42104;SDS011;70664;51.472;5.712;2024-03-17T08:16:15;3.08;;;2.20;;
42104;SDS011;70664;51.472;5.712;2024-03-17T08:18:42;2.83;;;2.00;;
42104;SDS011;70664;51.472;5.712;2024-03-17T08:21:08;2.63;;;2.10;;
42104;SDS011;70664;51.472;5.712;2024-03-17T08:23:34;2.78;;;2.20;;
42104;SDS011;70664;51.472;5.712;2024-03-17T08:26:04;2.45;;;1.88;;
42104;SDS011;70664;51.472;5.712;2024-03-17T08:28:30;2.60;;;2.40;;
42104;SDS011;70664;51.472;5.712;2024-03-17T08:30:57;4.60;;;2.20;;
42104;SDS011;70664;51.472;5.712;2024-03-17T08:33:24;3.42;;;2.30;;
42104;SDS011;70664;51.472;5.712;2024-03-17T08:38:24;3.20;;;2.30;;
42104;SDS011;70664;51.472;5.712;2024-03-17T08:40:53;2.88;;;2.30;;
42104;SDS011;70664;51.472;5.712;2024-03-17T08:43:20;4.90;;;2.28;;
42104;SDS011;70664;51.472;5.712;2024-03-17T08:45:56;3.10;;;2.28;;
42104;SDS011;70664;51.472;5.712;2024-03-17T08:48:24;3.97;;;2.45;;
42104;SDS011;70664;51.472;5.712;2024-03-17T08:50:52;3.30;;;2.40;;
42104;SDS011;70664;51.472;5.712;2024-03-17T08:53:22;4.45;;;2.38;;
42104;SDS011;70664;51.472;5.712;2024-03-17T08:55:48;2.42;;;2.20;;
42104;SDS011;70664;51.472;5.712;2024-03-17T08:58:14;3.15;;;2.20;;
42104;SDS011;70664;51.472;5.712;2024-03-17T09:00:41;3.38;;;2.13;;
42104;SDS011;70664;51.472;5.712;2024-03-17T09:03:07;2.65;;;2.13;;
42104;SDS011;70664;51.472;5.712;2024-03-17T09:05:37;3.75;;;2.40;;
42104;SDS011;70664;51.472;5.712;2024-03-17T09:08:08;4.03;;;2.40;;
42104;SDS011;70664;51.472;5.712;2024-03-17T09:10:45;2.50;;;2.28;;
42104;SDS011;70664;51.472;5.712;2024-03-17T09:13:14;2.13;;;1.90;;
42104;SDS011;70664;51.472;5.712;2024-03-17T09:15:57;2.90;;;2.58;;
42104;SDS011;70664;51.472;5.712;2024-03-17T09:18:25;4.05;;;2.00;;
42104;SDS011;70664;51.472;5.712;2024-03-17T09:20:55;3.78;;;2.47;;
42104;SDS011;70664;51.472;5.712;2024-03-17T09:23:22;2.42;;;2.20;;
42104;SDS011;70664;51.472;5.712;2024-03-17T09:25:55;3.17;;;2.15;;
42104;SDS011;70664;51.472;5.712;2024-03-17T09:28:26;3.65;;;2.08;;
42104;SDS011;70664;51.472;5.712;2024-03-17T09:30:53;3.35;;;2.50;;
42104;SDS011;70664;51.472;5.712;2024-03-17T09:33:20;3.33;;;2.50;;
42104;SDS011;70664;51.472;5.712;2024-03-17T09:38:25;4.70;;;2.58;;
42104;SDS011;70664;51.472;5.712;2024-03-17T09:40:52;3.25;;;2.47;;
42104;SDS011;70664;51.472;5.712;2024-03-17T09:43:20;2.88;;;2.00;;
42104;SDS011;70664;51.472;5.712;2024-03-17T09:45:49;3.67;;;2.13;;
42104;SDS011;70664;51.472;5.712;2024-03-17T09:48:19;3.65;;;2.47;;
42104;SDS011;70664;51.472;5.712;2024-03-17T09:50:58;3.75;;;2.42;;
42104;SDS011;70664;51.472;5.712;2024-03-17T09:53:29;4.40;;;2.35;;
42104;SDS011;70664;51.472;5.712;2024-03-17T09:56:03;4.80;;;2.42;;
42104;SDS011;70664;51.472;5.712;2024-03-17T09:58:34;4.22;;;2.50;;
42104;SDS011;70664;51.472;5.712;2024-03-17T10:01:00;4.90;;;2.47;;
42104;SDS011;70664;51.472;5.712;2024-03-17T10:06:14;4.35;;;2.60;;
42104;SDS011;70664;51.472;5.712;2024-03-17T10:08:42;3.35;;;2.30;;
42104;SDS011;70664;51.472;5.712;2024-03-17T10:11:13;3.67;;;2.53;;
42104;SDS011;70664;51.472;5.712;2024-03-17T10:13:44;4.07;;;2.65;;
42104;SDS011;70664;51.472;5.712;2024-03-17T10:16:20;4.82;;;2.67;;
42104;SDS011;70664;51.472;5.712;2024-03-17T10:19:37;3.35;;;2.20;;
42104;SDS011;70664;51.472;5.712;2024-03-17T10:21:58;3.30;;;2.33;;
42104;SDS011;70664;51.472;5.712;2024-03-17T10:24:26;4.18;;;2.30;;
42104;SDS011;70664;51.472;5.712;2024-03-17T10:26:58;4.63;;;2.88;;
42104;SDS011;70664;51.472;5.712;2024-03-17T10:31:56;88.50;;;20.50;;
42104;SDS011;70664;51.472;5.712;2024-03-17T10:34:27;73.93;;;14.38;;
42104;SDS011;70664;51.472;5.712;2024-03-17T10:37:10;57.08;;;15.27;;
42104;SDS011;70664;51.472;5.712;2024-03-17T10:39:45;58.42;;;15.80;;
42104;SDS011;70664;51.472;5.712;2024-03-17T10:42:14;68.03;;;17.52;;
42104;SDS011;70664;51.472;5.712;2024-03-17T10:44:53;65.38;;;15.77;;
42104;SDS011;70664;51.472;5.712;2024-03-17T10:47:21;81.13;;;17.63;;
42104;SDS011;70664;51.472;5.712;2024-03-17T10:49:50;70.07;;;17.08;;
42104;SDS011;70664;51.472;5.712;2024-03-17T10:52:19;69.53;;;16.65;;
42104;SDS011;70664;51.472;5.712;2024-03-17T10:54:52;60.00;;;17.13;;
42104;SDS011;70664;51.472;5.712;2024-03-17T11:00:00;65.68;;;16.95;;
42104;SDS011;70664;51.472;5.712;2024-03-17T11:02:33;66.55;;;16.48;;
42104;SDS011;70664;51.472;5.712;2024-03-17T11:05:43;59.50;;;16.00;;
42104;SDS011;70664;51.472;5.712;2024-03-17T11:07:59;64.65;;;15.55;;
42104;SDS011;70664;51.472;5.712;2024-03-17T11:10:36;62.50;;;15.68;;
42104;SDS011;70664;51.472;5.712;2024-03-17T11:13:03;62.83;;;15.55;;
42104;SDS011;70664;51.472;5.712;2024-03-17T11:17:55;62.15;;;15.82;;
42104;SDS011;70664;51.472;5.712;2024-03-17T11:20:34;58.63;;;15.15;;
42104;SDS011;70664;51.472;5.712;2024-03-17T11:23:07;56.30;;;14.82;;
42104;SDS011;70664;51.472;5.712;2024-03-17T11:25:40;53.53;;;15.75;;
42104;SDS011;70664;51.472;5.712;2024-03-17T11:28:07;57.35;;;15.15;;
42104;SDS011;70664;51.472;5.712;2024-03-17T11:36:29;48.95;;;14.55;;
42104;SDS011;70664;51.472;5.712;2024-03-17T11:38:54;43.95;;;14.18;;
42104;SDS011;70664;51.472;5.712;2024-03-17T11:46:56;43.85;;;12.85;;
42104;SDS011;70664;51.472;5.712;2024-03-17T11:49:31;41.88;;;13.27;;
42104;SDS011;70664;51.472;5.712;2024-03-17T11:54:30;46.15;;;13.02;;
42104;SDS011;70664;51.472;5.712;2024-03-17T11:57:01;42.20;;;13.07;;
42104;SDS011;70664;51.472;5.712;2024-03-17T11:59:28;35.80;;;11.73;;
42104;SDS011;70664;51.472;5.712;2024-03-17T12:01:55;45.33;;;12.98;;
42104;SDS011;70664;51.472;5.712;2024-03-17T12:04:21;40.97;;;11.73;;
42104;SDS011;70664;51.472;5.712;2024-03-17T12:09:21;35.63;;;11.77;;
42104;SDS011;70664;51.472;5.712;2024-03-17T12:14:22;38.92;;;11.68;;
42104;SDS011;70664;51.472;5.712;2024-03-17T12:16:54;37.75;;;12.65;;
42104;SDS011;70664;51.472;5.712;2024-03-17T12:19:32;36.50;;;11.90;;
42104;SDS011;70664;51.472;5.712;2024-03-17T12:21:58;38.33;;;11.57;;
42104;SDS011;70664;51.472;5.712;2024-03-17T12:24:29;34.72;;;10.98;;
42104;SDS011;70664;51.472;5.712;2024-03-17T12:27:01;39.30;;;12.52;;
42104;SDS011;70664;51.472;5.712;2024-03-17T12:29:31;35.40;;;11.10;;
42104;SDS011;70664;51.472;5.712;2024-03-17T12:32:19;33.67;;;11.13;;
42104;SDS011;70664;51.472;5.712;2024-03-17T12:34:50;39.97;;;11.43;;
42104;SDS011;70664;51.472;5.712;2024-03-17T12:37:23;37.50;;;11.23;;
42104;SDS011;70664;51.472;5.712;2024-03-17T12:39:59;33.78;;;11.23;;
42104;SDS011;70664;51.472;5.712;2024-03-17T12:42:26;36.72;;;11.10;;
42104;SDS011;70664;51.472;5.712;2024-03-17T12:44:53;38.05;;;10.77;;
42104;SDS011;70664;51.472;5.712;2024-03-17T12:47:29;37.53;;;12.02;;
42104;SDS011;70664;51.472;5.712;2024-03-17T12:49:57;39.38;;;10.65;;
42104;SDS011;70664;51.472;5.712;2024-03-17T12:52:25;32.83;;;11.05;;
42104;SDS011;70664;51.472;5.712;2024-03-17T12:57:47;35.72;;;10.93;;
42104;SDS011;70664;51.472;5.712;2024-03-17T13:00:36;34.00;;;10.55;;
42104;SDS011;70664;51.472;5.712;2024-03-17T13:03:05;36.45;;;10.60;;
42104;SDS011;70664;51.472;5.712;2024-03-17T13:05:33;30.65;;;10.25;;
42104;SDS011;70664;51.472;5.712;2024-03-17T13:08:00;32.28;;;11.20;;
42104;SDS011;70664;51.472;5.712;2024-03-17T13:10:26;30.30;;;9.57;;
42104;SDS011;70664;51.472;5.712;2024-03-17T13:12:58;31.23;;;10.48;;
42104;SDS011;70664;51.472;5.712;2024-03-17T13:15:32;30.40;;;9.82;;
42104;SDS011;70664;51.472;5.712;2024-03-17T13:18:02;31.75;;;9.68;;
42104;SDS011;70664;51.472;5.712;2024-03-17T13:20:29;28.88;;;9.70;;
42104;SDS011;70664;51.472;5.712;2024-03-17T13:22:59;30.00;;;10.15;;
42104;SDS011;70664;51.472;5.712;2024-03-17T13:25:27;27.17;;;9.13;;
42104;SDS011;70664;51.472;5.712;2024-03-17T13:28:02;32.50;;;10.02;;
42104;SDS011;70664;51.472;5.712;2024-03-17T13:30:29;28.83;;;9.38;;
42104;SDS011;70664;51.472;5.712;2024-03-17T13:32:58;27.80;;;9.57;;
42104;SDS011;70664;51.472;5.712;2024-03-17T13:35:28;25.83;;;9.80;;
42104;SDS011;70664;51.472;5.712;2024-03-17T13:37:55;31.88;;;10.75;;
42104;SDS011;70664;51.472;5.712;2024-03-17T13:40:26;26.63;;;9.63;;
42104;SDS011;70664;51.472;5.712;2024-03-17T13:42:53;26.92;;;9.98;;
42104;SDS011;70664;51.472;5.712;2024-03-17T13:45:22;27.77;;;9.50;;
42104;SDS011;70664;51.472;5.712;2024-03-17T13:47:56;30.50;;;10.50;;
42104;SDS011;70664;51.472;5.712;2024-03-17T13:50:25;32.13;;;10.02;;
42104;SDS011;70664;51.472;5.712;2024-03-17T13:52:51;24.40;;;9.52;;
42104;SDS011;70664;51.472;5.712;2024-03-17T13:55:18;27.33;;;9.73;;
42104;SDS011;70664;51.472;5.712;2024-03-17T13:57:47;27.35;;;9.77;;
42104;SDS011;70664;51.472;5.712;2024-03-17T14:00:22;23.15;;;8.98;;
42104;SDS011;70664;51.472;5.712;2024-03-17T14:02:50;24.00;;;9.50;;
42104;SDS011;70664;51.472;5.712;2024-03-17T14:05:27;25.35;;;8.70;;
42104;SDS011;70664;51.472;5.712;2024-03-17T14:07:53;24.08;;;9.35;;
42104;SDS011;70664;51.472;5.712;2024-03-17T14:10:20;21.95;;;8.57;;
42104;SDS011;70664;51.472;5.712;2024-03-17T14:12:50;26.80;;;8.70;;
42104;SDS011;70664;51.472;5.712;2024-03-17T14:15:16;24.13;;;8.38;;
42104;SDS011;70664;51.472;5.712;2024-03-17T14:17:46;23.25;;;7.95;;
42104;SDS011;70664;51.472;5.712;2024-03-17T14:20:13;21.95;;;7.97;;
42104;SDS011;70664;51.472;5.712;2024-03-17T14:22:43;20.05;;;7.43;;
42104;SDS011;70664;51.472;5.712;2024-03-17T14:25:14;18.30;;;6.80;;
42104;SDS011;70664;51.472;5.712;2024-03-17T14:27:46;20.98;;;6.63;;
42104;SDS011;70664;51.472;5.712;2024-03-17T14:30:19;17.90;;;6.25;;
42104;SDS011;70664;51.472;5.712;2024-03-17T14:32:45;14.82;;;5.45;;
42104;SDS011;70664;51.472;5.712;2024-03-17T14:35:15;10.77;;;5.30;;
42104;SDS011;70664;51.472;5.712;2024-03-17T14:37:43;14.52;;;4.95;;
42104;SDS011;70664;51.472;5.712;2024-03-17T14:40:12;10.82;;;5.00;;
42104;SDS011;70664;51.472;5.712;2024-03-17T14:45:14;11.02;;;4.45;;
42104;SDS011;70664;51.472;5.712;2024-03-17T14:47:41;11.57;;;4.93;;
42104;SDS011;70664;51.472;5.712;2024-03-17T14:50:06;9.65;;;4.20;;
42104;SDS011;70664;51.472;5.712;2024-03-17T14:52:33;12.63;;;4.10;;
42104;SDS011;70664;51.472;5.712;2024-03-17T14:55:00;10.30;;;3.97;;
42104;SDS011;70664;51.472;5.712;2024-03-17T14:57:25;11.10;;;3.67;;
42104;SDS011;70664;51.472;5.712;2024-03-17T14:59:51;8.68;;;3.92;;
42104;SDS011;70664;51.472;5.712;2024-03-17T15:02:17;7.82;;;3.78;;
42104;SDS011;70664;51.472;5.712;2024-03-17T15:04:43;8.57;;;3.30;;
42104;SDS011;70664;51.472;5.712;2024-03-17T15:07:08;6.03;;;3.53;;
42104;SDS011;70664;51.472;5.712;2024-03-17T15:09:34;5.63;;;2.88;;
42104;SDS011;70664;51.472;5.712;2024-03-17T15:12:00;10.05;;;3.15;;
42104;SDS011;70664;51.472;5.712;2024-03-17T15:14:28;8.18;;;3.35;;
42104;SDS011;70664;51.472;5.712;2024-03-17T15:16:56;10.00;;;3.40;;
42104;SDS011;70664;51.472;5.712;2024-03-17T15:19:22;8.27;;;3.03;;
42104;SDS011;70664;51.472;5.712;2024-03-17T15:21:48;9.57;;;2.85;;
42104;SDS011;70664;51.472;5.712;2024-03-17T15:24:13;7.60;;;2.85;;
42104;SDS011;70664;51.472;5.712;2024-03-17T15:26:39;10.32;;;2.80;;
42104;SDS011;70664;51.472;5.712;2024-03-17T15:29:05;6.10;;;3.05;;
42104;SDS011;70664;51.472;5.712;2024-03-17T15:31:31;8.52;;;3.35;;
42104;SDS011;70664;51.472;5.712;2024-03-17T15:33:56;8.05;;;3.00;;
42104;SDS011;70664;51.472;5.712;2024-03-17T15:36:22;7.43;;;2.70;;